<?xml version="1.0" encoding="UTF-8" standalone="no" ?>
<gpx xmlns="http://www.topografix.com/GPX/1/1" xmlns:xsi="http://www.w3.org/2001/XMLSchema-instance" xsi:schemaLocation="http://www.topografix.com/GPX/1/1 http://www.topografix.com/GPX/1/1/gpx.xsd" version="1.1" creator="VisuGPX - https://www.visugpx.com">
  <metadata>
    <name>LarmoBaden_PontNeuf_12.8km</name>
    <desc><![CDATA[gnerando idor: 9701901 9847312]]></desc>
  </metadata>
  <trk>
    <name><![CDATA[bono - Baden-9847312]]></name>
    <extensions>
      <line xmlns="http://www.topografix.com/GPX/gpx_style/0/2">
        <color>00FF00</color>
        <width>4</width>
      </line>
    </extensions>
    <trkseg>
      <trkpt lat="47.66022" lon="-2.91771">
        <ele>6</ele>
        <time>2023-12-09T07:35:40Z</time>
      </trkpt>
      <trkpt lat="47.66034" lon="-2.91932">
        <ele>4</ele>
        <time>2023-12-09T07:38:06Z</time>
      </trkpt>
      <trkpt lat="47.66092" lon="-2.92084">
        <ele>3</ele>
        <time>2023-12-09T07:40:43Z</time>
      </trkpt>
      <trkpt lat="47.66149" lon="-2.92242">
        <ele>2</ele>
        <time>2023-12-09T07:43:24Z</time>
      </trkpt>
      <trkpt lat="47.66239" lon="-2.92333">
        <ele>1</ele>
        <time>2023-12-09T07:45:49Z</time>
      </trkpt>
      <trkpt lat="47.66349" lon="-2.92342">
        <ele>3</ele>
        <time>2023-12-09T07:48:16Z</time>
      </trkpt>
      <trkpt lat="47.66431" lon="-2.92466">
        <ele>1</ele>
        <time>2023-12-09T07:50:52Z</time>
      </trkpt>
      <trkpt lat="47.66533" lon="-2.92472">
        <ele>2</ele>
        <time>2023-12-09T07:53:08Z</time>
      </trkpt>
      <trkpt lat="47.66633" lon="-2.92421">
        <ele>9</ele>
        <time>2023-12-09T07:55:30Z</time>
      </trkpt>
      <trkpt lat="47.66721" lon="-2.92497">
        <ele>5</ele>
        <time>2023-12-09T07:57:45Z</time>
      </trkpt>
      <trkpt lat="47.66795" lon="-2.92463">
        <ele>8</ele>
        <time>2023-12-09T07:59:29Z</time>
      </trkpt>
      <trkpt lat="47.66791" lon="-2.92381">
        <ele>12</ele>
        <time>2023-12-09T08:00:43Z</time>
      </trkpt>
      <trkpt lat="47.66742" lon="-2.92278">
        <ele>17</ele>
        <time>2023-12-09T08:02:36Z</time>
      </trkpt>
      <trkpt lat="47.66711" lon="-2.9216">
        <ele>19</ele>
        <time>2023-12-09T08:04:30Z</time>
      </trkpt>
      <trkpt lat="47.66693" lon="-2.92054">
        <ele>17</ele>
        <time>2023-12-09T08:06:08Z</time>
      </trkpt>
      <trkpt lat="47.66733" lon="-2.91932">
        <ele>9</ele>
        <time>2023-12-09T08:08:10Z</time>
      </trkpt>
      <trkpt lat="47.66719" lon="-2.92011">
        <ele>10</ele>
        <time>2023-12-09T08:09:23Z</time>
      </trkpt>
      <trkpt lat="47.66713" lon="-2.92123">
        <ele>17</ele>
        <time>2023-12-09T08:11:04Z</time>
      </trkpt>
      <trkpt lat="47.66742" lon="-2.9223">
        <ele>16</ele>
        <time>2023-12-09T08:12:48Z</time>
      </trkpt>
      <trkpt lat="47.66766" lon="-2.92477">
        <ele>7</ele>
        <time>2023-12-09T08:16:32Z</time>
      </trkpt>
      <trkpt lat="47.66737" lon="-2.92494">
        <ele>6</ele>
        <time>2023-12-09T08:17:14Z</time>
      </trkpt>
      <trkpt lat="47.66714" lon="-2.92492">
        <ele>6</ele>
        <time>2023-12-09T08:17:45Z</time>
      </trkpt>
      <trkpt lat="47.66651" lon="-2.92441">
        <ele>8</ele>
        <time>2023-12-09T08:19:20Z</time>
      </trkpt>
      <trkpt lat="47.66623" lon="-2.92436">
        <ele>7</ele>
        <time>2023-12-09T08:19:58Z</time>
      </trkpt>
      <trkpt lat="47.66542" lon="-2.92475">
        <ele>2</ele>
        <time>2023-12-09T08:21:52Z</time>
      </trkpt>
      <trkpt lat="47.66443" lon="-2.92475">
        <ele>1</ele>
        <time>2023-12-09T08:24:04Z</time>
      </trkpt>
      <trkpt lat="47.66409" lon="-2.92444">
        <ele>1</ele>
        <time>2023-12-09T08:24:57Z</time>
      </trkpt>
      <trkpt lat="47.66355" lon="-2.92354">
        <ele>3</ele>
        <time>2023-12-09T08:26:45Z</time>
      </trkpt>
      <trkpt lat="47.66256" lon="-2.92341">
        <ele>1</ele>
        <time>2023-12-09T08:28:58Z</time>
      </trkpt>
      <trkpt lat="47.66193" lon="-2.92313">
        <ele>1</ele>
        <time>2023-12-09T08:30:26Z</time>
      </trkpt>
      <trkpt lat="47.66156" lon="-2.92259">
        <ele>2</ele>
        <time>2023-12-09T08:31:35Z</time>
      </trkpt>
      <trkpt lat="47.66128" lon="-2.92219">
        <ele>2</ele>
        <time>2023-12-09T08:32:27Z</time>
      </trkpt>
      <trkpt lat="47.66116" lon="-2.92171">
        <ele>3</ele>
        <time>2023-12-09T08:33:13Z</time>
      </trkpt>
      <trkpt lat="47.66108" lon="-2.92141">
        <ele>3</ele>
        <time>2023-12-09T08:33:42Z</time>
      </trkpt>
      <trkpt lat="47.66088" lon="-2.92096">
        <ele>3</ele>
        <time>2023-12-09T08:34:30Z</time>
      </trkpt>
      <trkpt lat="47.66076" lon="-2.92015">
        <ele>4</ele>
        <time>2023-12-09T08:35:45Z</time>
      </trkpt>
      <trkpt lat="47.66052" lon="-2.91966">
        <ele>4</ele>
        <time>2023-12-09T08:36:39Z</time>
      </trkpt>
      <trkpt lat="47.6603" lon="-2.91913">
        <ele>3</ele>
        <time>2023-12-09T08:37:35Z</time>
      </trkpt>
      <trkpt lat="47.66016" lon="-2.91829">
        <ele>4</ele>
        <time>2023-12-09T08:38:53Z</time>
      </trkpt>
      <trkpt lat="47.66031" lon="-2.91783">
        <ele>6</ele>
        <time>2023-12-09T08:39:39Z</time>
      </trkpt>
      <trkpt lat="47.66" lon="-2.91773">
        <ele>5</ele>
        <time>2023-12-09T08:40:21Z</time>
      </trkpt>
      <trkpt lat="47.66" lon="-2.91802">
        <ele>4</ele>
        <time>2023-12-09T08:40:47Z</time>
      </trkpt>
      <trkpt lat="47.6597" lon="-2.91832">
        <ele>3</ele>
        <time>2023-12-09T08:41:36Z</time>
      </trkpt>
      <trkpt lat="47.65938" lon="-2.91871">
        <ele>4</ele>
        <time>2023-12-09T08:42:31Z</time>
      </trkpt>
      <trkpt lat="47.65948" lon="-2.91926">
        <ele>5</ele>
        <time>2023-12-09T08:43:22Z</time>
      </trkpt>
      <trkpt lat="47.65975" lon="-2.92">
        <ele>6</ele>
        <time>2023-12-09T08:44:38Z</time>
      </trkpt>
      <trkpt lat="47.65985" lon="-2.92081">
        <ele>7</ele>
        <time>2023-12-09T08:45:52Z</time>
      </trkpt>
      <trkpt lat="47.65994" lon="-2.92146">
        <ele>7</ele>
        <time>2023-12-09T08:46:51Z</time>
      </trkpt>
      <trkpt lat="47.66021" lon="-2.92197">
        <ele>5</ele>
        <time>2023-12-09T08:47:50Z</time>
      </trkpt>
      <trkpt lat="47.66048" lon="-2.9227">
        <ele>2</ele>
        <time>2023-12-09T08:49:05Z</time>
      </trkpt>
      <trkpt lat="47.66003" lon="-2.92356">
        <ele>3</ele>
        <time>2023-12-09T08:50:42Z</time>
      </trkpt>
      <trkpt lat="47.65919" lon="-2.92383">
        <ele>5</ele>
        <time>2023-12-09T08:52:37Z</time>
      </trkpt>
      <trkpt lat="47.65879" lon="-2.92371">
        <ele>6</ele>
        <time>2023-12-09T08:53:32Z</time>
      </trkpt>
      <trkpt lat="47.65865" lon="-2.9233">
        <ele>7</ele>
        <time>2023-12-09T08:54:13Z</time>
      </trkpt>
      <trkpt lat="47.65855" lon="-2.92338">
        <ele>7</ele>
        <time>2023-12-09T08:54:28Z</time>
      </trkpt>
      <trkpt lat="47.65844" lon="-2.92399">
        <ele>7</ele>
        <time>2023-12-09T08:55:25Z</time>
      </trkpt>
      <trkpt lat="47.65808" lon="-2.9245">
        <ele>5</ele>
        <time>2023-12-09T08:56:31Z</time>
      </trkpt>
      <trkpt lat="47.65763" lon="-2.92474">
        <ele>4</ele>
        <time>2023-12-09T08:57:35Z</time>
      </trkpt>
      <trkpt lat="47.6571" lon="-2.92469">
        <ele>7</ele>
        <time>2023-12-09T08:58:46Z</time>
      </trkpt>
      <trkpt lat="47.65668" lon="-2.92461">
        <ele>10</ele>
        <time>2023-12-09T08:59:42Z</time>
      </trkpt>
      <trkpt lat="47.65668" lon="-2.92502">
        <ele>9</ele>
        <time>2023-12-09T09:00:19Z</time>
      </trkpt>
      <trkpt lat="47.65664" lon="-2.92551">
        <ele>6</ele>
        <time>2023-12-09T09:01:04Z</time>
      </trkpt>
      <trkpt lat="47.65635" lon="-2.92591">
        <ele>7</ele>
        <time>2023-12-09T09:01:56Z</time>
      </trkpt>
      <trkpt lat="47.65591" lon="-2.92618">
        <ele>8</ele>
        <time>2023-12-09T09:03:00Z</time>
      </trkpt>
      <trkpt lat="47.65541" lon="-2.92639">
        <ele>7</ele>
        <time>2023-12-09T09:04:09Z</time>
      </trkpt>
      <trkpt lat="47.65536" lon="-2.92662">
        <ele>4</ele>
        <time>2023-12-09T09:04:31Z</time>
      </trkpt>
      <trkpt lat="47.65484" lon="-2.9263">
        <ele>8</ele>
        <time>2023-12-09T09:05:46Z</time>
      </trkpt>
      <trkpt lat="47.65443" lon="-2.92621">
        <ele>6</ele>
        <time>2023-12-09T09:06:41Z</time>
      </trkpt>
      <trkpt lat="47.65422" lon="-2.92573">
        <ele>8</ele>
        <time>2023-12-09T09:07:33Z</time>
      </trkpt>
      <trkpt lat="47.65388" lon="-2.9254">
        <ele>7</ele>
        <time>2023-12-09T09:08:27Z</time>
      </trkpt>
      <trkpt lat="47.65354" lon="-2.9248">
        <ele>6</ele>
        <time>2023-12-09T09:09:38Z</time>
      </trkpt>
      <trkpt lat="47.65317" lon="-2.92456">
        <ele>5</ele>
        <time>2023-12-09T09:10:31Z</time>
      </trkpt>
      <trkpt lat="47.65278" lon="-2.92465">
        <ele>5</ele>
        <time>2023-12-09T09:11:24Z</time>
      </trkpt>
      <trkpt lat="47.65234" lon="-2.92491">
        <ele>4</ele>
        <time>2023-12-09T09:12:27Z</time>
      </trkpt>
      <trkpt lat="47.6519" lon="-2.92503">
        <ele>4</ele>
        <time>2023-12-09T09:13:27Z</time>
      </trkpt>
      <trkpt lat="47.65156" lon="-2.92497">
        <ele>6</ele>
        <time>2023-12-09T09:14:13Z</time>
      </trkpt>
      <trkpt lat="47.65132" lon="-2.92524">
        <ele>5</ele>
        <time>2023-12-09T09:14:53Z</time>
      </trkpt>
      <trkpt lat="47.65099" lon="-2.92546">
        <ele>4</ele>
        <time>2023-12-09T09:15:41Z</time>
      </trkpt>
      <trkpt lat="47.65063" lon="-2.92571">
        <ele>4</ele>
        <time>2023-12-09T09:16:34Z</time>
      </trkpt>
      <trkpt lat="47.65033" lon="-2.92607">
        <ele>4</ele>
        <time>2023-12-09T09:17:26Z</time>
      </trkpt>
      <trkpt lat="47.65006" lon="-2.92655">
        <ele>3</ele>
        <time>2023-12-09T09:18:22Z</time>
      </trkpt>
      <trkpt lat="47.64991" lon="-2.92706">
        <ele>3</ele>
        <time>2023-12-09T09:19:12Z</time>
      </trkpt>
      <trkpt lat="47.64982" lon="-2.92762">
        <ele>2</ele>
        <time>2023-12-09T09:20:04Z</time>
      </trkpt>
      <trkpt lat="47.64969" lon="-2.92819">
        <ele>2</ele>
        <time>2023-12-09T09:20:58Z</time>
      </trkpt>
      <trkpt lat="47.64957" lon="-2.92889">
        <ele>4</ele>
        <time>2023-12-09T09:22:03Z</time>
      </trkpt>
      <trkpt lat="47.64945" lon="-2.92984">
        <ele>3</ele>
        <time>2023-12-09T09:23:30Z</time>
      </trkpt>
      <trkpt lat="47.64992" lon="-2.93104">
        <ele>7</ele>
        <time>2023-12-09T09:25:34Z</time>
      </trkpt>
      <trkpt lat="47.65067" lon="-2.93135">
        <ele>7</ele>
        <time>2023-12-09T09:27:18Z</time>
      </trkpt>
      <trkpt lat="47.65138" lon="-2.93189">
        <ele>5</ele>
        <time>2023-12-09T09:29:05Z</time>
      </trkpt>
      <trkpt lat="47.6519" lon="-2.93303">
        <ele>2</ele>
        <time>2023-12-09T09:31:09Z</time>
      </trkpt>
      <trkpt lat="47.65153" lon="-2.93452">
        <ele>4</ele>
        <time>2023-12-09T09:33:31Z</time>
      </trkpt>
      <trkpt lat="47.6513" lon="-2.93548">
        <ele>7</ele>
        <time>2023-12-09T09:35:03Z</time>
      </trkpt>
      <trkpt lat="47.65086" lon="-2.93663">
        <ele>5</ele>
        <time>2023-12-09T09:37:02Z</time>
      </trkpt>
      <trkpt lat="47.65098" lon="-2.93732">
        <ele>8</ele>
        <time>2023-12-09T09:38:06Z</time>
      </trkpt>
      <trkpt lat="47.65136" lon="-2.93846">
        <ele>5</ele>
        <time>2023-12-09T09:40:00Z</time>
      </trkpt>
      <trkpt lat="47.65113" lon="-2.93936">
        <ele>6</ele>
        <time>2023-12-09T09:41:27Z</time>
      </trkpt>
      <trkpt lat="47.65091" lon="-2.94019">
        <ele>6</ele>
        <time>2023-12-09T09:42:47Z</time>
      </trkpt>
      <trkpt lat="47.65051" lon="-2.94088">
        <ele>6</ele>
        <time>2023-12-09T09:44:09Z</time>
      </trkpt>
      <trkpt lat="47.65006" lon="-2.9417">
        <ele>5</ele>
        <time>2023-12-09T09:45:44Z</time>
      </trkpt>
      <trkpt lat="47.64968" lon="-2.94199">
        <ele>6</ele>
        <time>2023-12-09T09:46:41Z</time>
      </trkpt>
      <trkpt lat="47.64961" lon="-2.9423">
        <ele>5</ele>
        <time>2023-12-09T09:47:10Z</time>
      </trkpt>
      <trkpt lat="47.64902" lon="-2.94328">
        <ele>5</ele>
        <time>2023-12-09T09:49:08Z</time>
      </trkpt>
      <trkpt lat="47.64869" lon="-2.94414">
        <ele>5</ele>
        <time>2023-12-09T09:50:37Z</time>
      </trkpt>
      <trkpt lat="47.64847" lon="-2.94412">
        <ele>6</ele>
        <time>2023-12-09T09:51:07Z</time>
      </trkpt>
      <trkpt lat="47.6482" lon="-2.94434">
        <ele>8</ele>
        <time>2023-12-09T09:51:48Z</time>
      </trkpt>
      <trkpt lat="47.64833" lon="-2.94452">
        <ele>6</ele>
        <time>2023-12-09T09:52:12Z</time>
      </trkpt>
      <trkpt lat="47.64818" lon="-2.94535">
        <ele>7</ele>
        <time>2023-12-09T09:53:29Z</time>
      </trkpt>
      <trkpt lat="47.64798" lon="-2.94629">
        <ele>11</ele>
        <time>2023-12-09T09:54:57Z</time>
      </trkpt>
      <trkpt lat="47.64789" lon="-2.94711">
        <ele>11</ele>
        <time>2023-12-09T09:56:12Z</time>
      </trkpt>
      <trkpt lat="47.64768" lon="-2.94779">
        <ele>10</ele>
        <time>2023-12-09T09:57:19Z</time>
      </trkpt>
      <trkpt lat="47.64735" lon="-2.94836">
        <ele>8</ele>
        <time>2023-12-09T09:58:27Z</time>
      </trkpt>
      <trkpt lat="47.64698" lon="-2.94909">
        <ele>7</ele>
        <time>2023-12-09T09:59:49Z</time>
      </trkpt>
      <trkpt lat="47.64666" lon="-2.94954">
        <ele>5</ele>
        <time>2023-12-09T10:00:48Z</time>
      </trkpt>
      <trkpt lat="47.64598" lon="-2.94944">
        <ele>8</ele>
        <time>2023-12-09T10:02:19Z</time>
      </trkpt>
      <trkpt lat="47.64533" lon="-2.94971">
        <ele>10</ele>
        <time>2023-12-09T10:03:49Z</time>
      </trkpt>
      <trkpt lat="47.64493" lon="-2.94998">
        <ele>10</ele>
        <time>2023-12-09T10:04:48Z</time>
      </trkpt>
      <trkpt lat="47.64425" lon="-2.95086">
        <ele>10</ele>
        <time>2023-12-09T10:06:48Z</time>
      </trkpt>
      <trkpt lat="47.64327" lon="-2.95217">
        <ele>10</ele>
        <time>2023-12-09T10:09:44Z</time>
      </trkpt>
      <trkpt lat="47.64286" lon="-2.95254">
        <ele>9</ele>
        <time>2023-12-09T10:10:48Z</time>
      </trkpt>
      <trkpt lat="47.64251" lon="-2.95296">
        <ele>8</ele>
        <time>2023-12-09T10:11:48Z</time>
      </trkpt>
      <trkpt lat="47.64199" lon="-2.95315">
        <ele>5</ele>
        <time>2023-12-09T10:13:00Z</time>
      </trkpt>
      <trkpt lat="47.64142" lon="-2.95303">
        <ele>6</ele>
        <time>2023-12-09T10:14:17Z</time>
      </trkpt>
      <trkpt lat="47.64096" lon="-2.95299">
        <ele>4</ele>
        <time>2023-12-09T10:15:18Z</time>
      </trkpt>
      <trkpt lat="47.64074" lon="-2.95429">
        <ele>13</ele>
        <time>2023-12-09T10:17:19Z</time>
      </trkpt>
      <trkpt lat="47.64201" lon="-2.95456">
        <ele>22</ele>
        <time>2023-12-09T10:20:10Z</time>
      </trkpt>
      <trkpt lat="47.64361" lon="-2.95347">
        <ele>12</ele>
        <time>2023-12-09T10:24:05Z</time>
      </trkpt>
      <trkpt lat="47.64404" lon="-2.95365">
        <ele>13</ele>
        <time>2023-12-09T10:25:04Z</time>
      </trkpt>
      <trkpt lat="47.64422" lon="-2.95443">
        <ele>13</ele>
        <time>2023-12-09T10:26:18Z</time>
      </trkpt>
      <trkpt lat="47.64399" lon="-2.95527">
        <ele>13</ele>
        <time>2023-12-09T10:27:40Z</time>
      </trkpt>
      <trkpt lat="47.64436" lon="-2.9557">
        <ele>6</ele>
        <time>2023-12-09T10:28:43Z</time>
      </trkpt>
      <trkpt lat="47.6446" lon="-2.95534">
        <ele>6</ele>
        <time>2023-12-09T10:29:28Z</time>
      </trkpt>
      <trkpt lat="47.64533" lon="-2.95621">
        <ele>5</ele>
        <time>2023-12-09T10:31:33Z</time>
      </trkpt>
      <trkpt lat="47.64593" lon="-2.95652">
        <ele>5</ele>
        <time>2023-12-09T10:32:58Z</time>
      </trkpt>
      <trkpt lat="47.64632" lon="-2.95758">
        <ele>6</ele>
        <time>2023-12-09T10:34:47Z</time>
      </trkpt>
      <trkpt lat="47.64678" lon="-2.95819">
        <ele>10</ele>
        <time>2023-12-09T10:36:09Z</time>
      </trkpt>
      <trkpt lat="47.64723" lon="-2.95767">
        <ele>11</ele>
        <time>2023-12-09T10:37:25Z</time>
      </trkpt>
      <trkpt lat="47.64754" lon="-2.95708">
        <ele>10</ele>
        <time>2023-12-09T10:38:32Z</time>
      </trkpt>
      <trkpt lat="47.64751" lon="-2.9563">
        <ele>8</ele>
        <time>2023-12-09T10:39:42Z</time>
      </trkpt>
      <trkpt lat="47.64697" lon="-2.95571">
        <ele>4</ele>
        <time>2023-12-09T10:41:12Z</time>
      </trkpt>
      <trkpt lat="47.64693" lon="-2.95496">
        <ele>5</ele>
        <time>2023-12-09T10:42:20Z</time>
      </trkpt>
      <trkpt lat="47.64711" lon="-2.95395">
        <ele>6</ele>
        <time>2023-12-09T10:43:53Z</time>
      </trkpt>
      <trkpt lat="47.6472" lon="-2.95252">
        <ele>6</ele>
        <time>2023-12-09T10:46:03Z</time>
      </trkpt>
      <trkpt lat="47.64758" lon="-2.95144">
        <ele>9</ele>
        <time>2023-12-09T10:47:52Z</time>
      </trkpt>
      <trkpt lat="47.64744" lon="-2.95075">
        <ele>7</ele>
        <time>2023-12-09T10:48:57Z</time>
      </trkpt>
      <trkpt lat="47.64764" lon="-2.94993">
        <ele>6</ele>
        <time>2023-12-09T10:50:15Z</time>
      </trkpt>
      <trkpt lat="47.648" lon="-2.94963">
        <ele>7</ele>
        <time>2023-12-09T10:51:10Z</time>
      </trkpt>
      <trkpt lat="47.64817" lon="-2.94877">
        <ele>6</ele>
        <time>2023-12-09T10:52:31Z</time>
      </trkpt>
      <trkpt lat="47.6485" lon="-2.94788">
        <ele>6</ele>
        <time>2023-12-09T10:54:02Z</time>
      </trkpt>
      <trkpt lat="47.64872" lon="-2.9471">
        <ele>6</ele>
        <time>2023-12-09T10:55:18Z</time>
      </trkpt>
      <trkpt lat="47.64893" lon="-2.94665">
        <ele>6</ele>
        <time>2023-12-09T10:56:08Z</time>
      </trkpt>
      <trkpt lat="47.64895" lon="-2.946">
        <ele>4</ele>
        <time>2023-12-09T10:57:06Z</time>
      </trkpt>
      <trkpt lat="47.64944" lon="-2.94504">
        <ele>3</ele>
        <time>2023-12-09T10:58:54Z</time>
      </trkpt>
      <trkpt lat="47.64986" lon="-2.94515">
        <ele>6</ele>
        <time>2023-12-09T10:59:51Z</time>
      </trkpt>
      <trkpt lat="47.6501" lon="-2.94556">
        <ele>8</ele>
        <time>2023-12-09T11:00:40Z</time>
      </trkpt>
      <trkpt lat="47.65028" lon="-2.94521">
        <ele>9</ele>
        <time>2023-12-09T11:01:20Z</time>
      </trkpt>
      <trkpt lat="47.6501" lon="-2.94468">
        <ele>6</ele>
        <time>2023-12-09T11:02:13Z</time>
      </trkpt>
      <trkpt lat="47.65011" lon="-2.9442">
        <ele>5</ele>
        <time>2023-12-09T11:02:56Z</time>
      </trkpt>
      <trkpt lat="47.65034" lon="-2.94404">
        <ele>7</ele>
        <time>2023-12-09T11:03:30Z</time>
      </trkpt>
      <trkpt lat="47.65045" lon="-2.94313">
        <ele>4</ele>
        <time>2023-12-09T11:04:53Z</time>
      </trkpt>
      <trkpt lat="47.65095" lon="-2.94245">
        <ele>5</ele>
        <time>2023-12-09T11:06:24Z</time>
      </trkpt>
      <trkpt lat="47.65151" lon="-2.94164">
        <ele>5</ele>
        <time>2023-12-09T11:08:08Z</time>
      </trkpt>
      <trkpt lat="47.65182" lon="-2.94096">
        <ele>5</ele>
        <time>2023-12-09T11:09:22Z</time>
      </trkpt>
      <trkpt lat="47.65216" lon="-2.94005">
        <ele>4</ele>
        <time>2023-12-09T11:10:55Z</time>
      </trkpt>
      <trkpt lat="47.65271" lon="-2.93902">
        <ele>2</ele>
        <time>2023-12-09T11:12:54Z</time>
      </trkpt>
      <trkpt lat="47.65299" lon="-2.93842">
        <ele>2.2</ele>
        <time>2023-12-09T11:13:59Z</time>
      </trkpt>
      <trkpt lat="47.65354" lon="-2.94064">
        <ele>5</ele>
        <time>2023-12-09T11:17:32Z</time>
      </trkpt>
      <trkpt lat="47.65351" lon="-2.94217">
        <ele>7</ele>
        <time>2023-12-09T11:19:49Z</time>
      </trkpt>
      <trkpt lat="47.65355" lon="-2.94299">
        <ele>9</ele>
        <time>2023-12-09T11:21:03Z</time>
      </trkpt>
      <trkpt lat="47.65208" lon="-2.94409">
        <ele>17</ele>
        <time>2023-12-09T11:24:43Z</time>
      </trkpt>
      <trkpt lat="47.65164" lon="-2.94426">
        <ele>17</ele>
        <time>2023-12-09T11:25:44Z</time>
      </trkpt>
      <trkpt lat="47.65134" lon="-2.94525">
        <ele>15</ele>
        <time>2023-12-09T11:27:21Z</time>
      </trkpt>
      <trkpt lat="47.65117" lon="-2.94511">
        <ele>15</ele>
        <time>2023-12-09T11:27:47Z</time>
      </trkpt>
      <trkpt lat="47.65109" lon="-2.94559">
        <ele>14</ele>
        <time>2023-12-09T11:28:32Z</time>
      </trkpt>
      <trkpt lat="47.65114" lon="-2.94594">
        <ele>14</ele>
        <time>2023-12-09T11:29:04Z</time>
      </trkpt>
      <trkpt lat="47.65073" lon="-2.94649">
        <ele>12</ele>
        <time>2023-12-09T11:30:18Z</time>
      </trkpt>
      <trkpt lat="47.65048" lon="-2.94727">
        <ele>15</ele>
        <time>2023-12-09T11:31:35Z</time>
      </trkpt>
      <trkpt lat="47.65033" lon="-2.94758">
        <ele>16</ele>
        <time>2023-12-09T11:32:09Z</time>
      </trkpt>
      <trkpt lat="47.65017" lon="-2.94801">
        <ele>18</ele>
        <time>2023-12-09T11:32:54Z</time>
      </trkpt>
      <trkpt lat="47.65013" lon="-2.94839">
        <ele>20</ele>
        <time>2023-12-09T11:33:28Z</time>
      </trkpt>
      <trkpt lat="47.65016" lon="-2.94874">
        <ele>19</ele>
        <time>2023-12-09T11:34:00Z</time>
      </trkpt>
      <trkpt lat="47.6493" lon="-2.9513">
        <ele>18</ele>
        <time>2023-12-09T11:38:17Z</time>
      </trkpt>
      <trkpt lat="47.6483" lon="-2.95099">
        <ele>12</ele>
        <time>2023-12-09T11:40:33Z</time>
      </trkpt>
      <trkpt lat="47.64814" lon="-2.95077">
        <ele>11</ele>
        <time>2023-12-09T11:41:03Z</time>
      </trkpt>
      <trkpt lat="47.64782" lon="-2.95071">
        <ele>9</ele>
        <time>2023-12-09T11:41:46Z</time>
      </trkpt>
      <trkpt lat="47.64752" lon="-2.95076">
        <ele>8</ele>
        <time>2023-12-09T11:42:26Z</time>
      </trkpt>
      <trkpt lat="47.64765" lon="-2.95133">
        <ele>9</ele>
        <time>2023-12-09T11:43:20Z</time>
      </trkpt>
      <trkpt lat="47.6473" lon="-2.95236">
        <ele>6</ele>
        <time>2023-12-09T11:45:04Z</time>
      </trkpt>
      <trkpt lat="47.64725" lon="-2.95329">
        <ele>8</ele>
        <time>2023-12-09T11:46:28Z</time>
      </trkpt>
      <trkpt lat="47.64718" lon="-2.95405">
        <ele>7</ele>
        <time>2023-12-09T11:47:36Z</time>
      </trkpt>
      <trkpt lat="47.64702" lon="-2.95461">
        <ele>6</ele>
        <time>2023-12-09T11:48:31Z</time>
      </trkpt>
      <trkpt lat="47.64701" lon="-2.95559">
        <ele>5</ele>
        <time>2023-12-09T11:49:59Z</time>
      </trkpt>
      <trkpt lat="47.64748" lon="-2.95618">
        <ele>7</ele>
        <time>2023-12-09T11:51:21Z</time>
      </trkpt>
      <trkpt lat="47.64758" lon="-2.95695">
        <ele>10</ele>
        <time>2023-12-09T11:52:32Z</time>
      </trkpt>
      <trkpt lat="47.64733" lon="-2.95757">
        <ele>11</ele>
        <time>2023-12-09T11:53:37Z</time>
      </trkpt>
      <trkpt lat="47.64688" lon="-2.95817">
        <ele>11</ele>
        <time>2023-12-09T11:54:58Z</time>
      </trkpt>
      <trkpt lat="47.64666" lon="-2.95807">
        <ele>8</ele>
        <time>2023-12-09T11:55:28Z</time>
      </trkpt>
      <trkpt lat="47.64637" lon="-2.95768">
        <ele>6</ele>
        <time>2023-12-09T11:56:21Z</time>
      </trkpt>
      <trkpt lat="47.64625" lon="-2.95741">
        <ele>6</ele>
        <time>2023-12-09T11:56:50Z</time>
      </trkpt>
      <trkpt lat="47.64596" lon="-2.95671">
        <ele>5</ele>
        <time>2023-12-09T11:58:03Z</time>
      </trkpt>
      <trkpt lat="47.64569" lon="-2.95639">
        <ele>5</ele>
        <time>2023-12-09T11:58:50Z</time>
      </trkpt>
      <trkpt lat="47.64512" lon="-2.95593">
        <ele>5</ele>
        <time>2023-12-09T12:00:16Z</time>
      </trkpt>
      <trkpt lat="47.64466" lon="-2.95547">
        <ele>6</ele>
        <time>2023-12-09T12:01:30Z</time>
      </trkpt>
      <trkpt lat="47.64439" lon="-2.9556">
        <ele>7</ele>
        <time>2023-12-09T12:02:08Z</time>
      </trkpt>
      <trkpt lat="47.64416" lon="-2.95452">
        <ele>13</ele>
        <time>2023-12-09T12:03:50Z</time>
      </trkpt>
      <trkpt lat="47.64406" lon="-2.95381">
        <ele>13</ele>
        <time>2023-12-09T12:04:55Z</time>
      </trkpt>
      <trkpt lat="47.64373" lon="-2.95349">
        <ele>12</ele>
        <time>2023-12-09T12:05:48Z</time>
      </trkpt>
      <trkpt lat="47.64212" lon="-2.95454">
        <ele>22</ele>
        <time>2023-12-09T12:09:42Z</time>
      </trkpt>
      <trkpt lat="47.64083" lon="-2.95432">
        <ele>14</ele>
        <time>2023-12-09T12:12:36Z</time>
      </trkpt>
      <trkpt lat="47.6409" lon="-2.95294">
        <ele>4</ele>
        <time>2023-12-09T12:14:40Z</time>
      </trkpt>
      <trkpt lat="47.64074" lon="-2.95296">
        <ele>4</ele>
        <time>2023-12-09T12:15:02Z</time>
      </trkpt>
      <trkpt lat="47.64068" lon="-2.95244">
        <ele>8</ele>
        <time>2023-12-09T12:15:49Z</time>
      </trkpt>
      <trkpt lat="47.64068" lon="-2.95121">
        <ele>12</ele>
        <time>2023-12-09T12:17:40Z</time>
      </trkpt>
      <trkpt lat="47.64055" lon="-2.95118">
        <ele>13</ele>
        <time>2023-12-09T12:17:57Z</time>
      </trkpt>
      <trkpt lat="47.64016" lon="-2.95268">
        <ele>8</ele>
        <time>2023-12-09T12:20:22Z</time>
      </trkpt>
      <trkpt lat="47.63964" lon="-2.95298">
        <ele>12</ele>
        <time>2023-12-09T12:21:36Z</time>
      </trkpt>
      <trkpt lat="47.6393" lon="-2.95321">
        <ele>14</ele>
        <time>2023-12-09T12:22:26Z</time>
      </trkpt>
      <trkpt lat="47.63907" lon="-2.95373">
        <ele>12</ele>
        <time>2023-12-09T12:23:22Z</time>
      </trkpt>
      <trkpt lat="47.63891" lon="-2.95421">
        <ele>10</ele>
        <time>2023-12-09T12:24:10Z</time>
      </trkpt>
      <trkpt lat="47.63865" lon="-2.95492">
        <ele>11</ele>
        <time>2023-12-09T12:25:23Z</time>
      </trkpt>
      <trkpt lat="47.6378" lon="-2.95714">
        <ele>9</ele>
        <time>2023-12-09T12:29:12Z</time>
      </trkpt>
      <trkpt lat="47.63753" lon="-2.95758">
        <ele>8</ele>
        <time>2023-12-09T12:30:06Z</time>
      </trkpt>
      <trkpt lat="47.63741" lon="-2.95739">
        <ele>11</ele>
        <time>2023-12-09T12:30:29Z</time>
      </trkpt>
      <trkpt lat="47.63615" lon="-2.95781">
        <ele>21</ele>
        <time>2023-12-09T12:33:22Z</time>
      </trkpt>
      <trkpt lat="47.63628" lon="-2.95515">
        <ele>25</ele>
        <time>2023-12-09T12:37:21Z</time>
      </trkpt>
      <trkpt lat="47.63401" lon="-2.95745">
        <ele>21</ele>
        <time>2023-12-09T12:43:28Z</time>
      </trkpt>
      <trkpt lat="47.6331" lon="-2.95757">
        <ele>17</ele>
        <time>2023-12-09T12:45:30Z</time>
      </trkpt>
      <trkpt lat="47.63264" lon="-2.95728">
        <ele>12</ele>
        <time>2023-12-09T12:46:37Z</time>
      </trkpt>
      <trkpt lat="47.63164" lon="-2.95745">
        <ele>9</ele>
        <time>2023-12-09T12:48:51Z</time>
      </trkpt>
      <trkpt lat="47.63084" lon="-2.95768">
        <ele>13</ele>
        <time>2023-12-09T12:50:40Z</time>
      </trkpt>
      <trkpt lat="47.63045" lon="-2.95858">
        <ele>7</ele>
        <time>2023-12-09T12:52:16Z</time>
      </trkpt>
      <trkpt lat="47.62942" lon="-2.95891">
        <ele>8</ele>
        <time>2023-12-09T12:54:37Z</time>
      </trkpt>
      <trkpt lat="47.62856" lon="-2.95856">
        <ele>10</ele>
        <time>2023-12-09T12:56:36Z</time>
      </trkpt>
      <trkpt lat="47.62764" lon="-2.95828">
        <ele>4</ele>
        <time>2023-12-09T12:58:41Z</time>
      </trkpt>
      <trkpt lat="47.6276" lon="-2.9571">
        <ele>9</ele>
        <time>2023-12-09T13:00:27Z</time>
      </trkpt>
      <trkpt lat="47.62713" lon="-2.95728">
        <ele>6</ele>
        <time>2023-12-09T13:01:32Z</time>
      </trkpt>
      <trkpt lat="47.62634" lon="-2.95602">
        <ele>9</ele>
        <time>2023-12-09T13:04:07Z</time>
      </trkpt>
      <trkpt lat="47.6267" lon="-2.95364">
        <ele>6</ele>
        <time>2023-12-09T13:07:46Z</time>
      </trkpt>
      <trkpt lat="47.62739" lon="-2.95097">
        <ele>5</ele>
        <time>2023-12-09T13:12:03Z</time>
      </trkpt>
      <trkpt lat="47.62808" lon="-2.94999">
        <ele>6</ele>
        <time>2023-12-09T13:14:11Z</time>
      </trkpt>
      <trkpt lat="47.62759" lon="-2.94832">
        <ele>3</ele>
        <time>2023-12-09T13:16:55Z</time>
      </trkpt>
      <trkpt lat="47.62952" lon="-2.94702">
        <ele>5</ele>
        <time>2023-12-09T13:21:38Z</time>
      </trkpt>
      <trkpt lat="47.62906" lon="-2.94575">
        <ele>5</ele>
        <time>2023-12-09T13:23:47Z</time>
      </trkpt>
      <trkpt lat="47.62884" lon="-2.9442">
        <ele>5</ele>
        <time>2023-12-09T13:26:10Z</time>
      </trkpt>
      <trkpt lat="47.62938" lon="-2.94281">
        <ele>7</ele>
        <time>2023-12-09T13:28:34Z</time>
      </trkpt>
      <trkpt lat="47.62883" lon="-2.94052">
        <ele>5</ele>
        <time>2023-12-09T13:32:13Z</time>
      </trkpt>
      <trkpt lat="47.62812" lon="-2.93958">
        <ele>5</ele>
        <time>2023-12-09T13:34:20Z</time>
      </trkpt>
      <trkpt lat="47.62732" lon="-2.93868">
        <ele>4</ele>
        <time>2023-12-09T13:36:34Z</time>
      </trkpt>
      <trkpt lat="47.62699" lon="-2.93762">
        <ele>5</ele>
        <time>2023-12-09T13:38:19Z</time>
      </trkpt>
      <trkpt lat="47.62649" lon="-2.93661">
        <ele>6</ele>
        <time>2023-12-09T13:40:11Z</time>
      </trkpt>
      <trkpt lat="47.62591" lon="-2.93585">
        <ele>4</ele>
        <time>2023-12-09T13:41:55Z</time>
      </trkpt>
      <trkpt lat="47.62558" lon="-2.93513">
        <ele>7</ele>
        <time>2023-12-09T13:43:13Z</time>
      </trkpt>
      <trkpt lat="47.62531" lon="-2.93478">
        <ele>7</ele>
        <time>2023-12-09T13:44:01Z</time>
      </trkpt>
      <trkpt lat="47.62502" lon="-2.93641">
        <ele>5</ele>
        <time>2023-12-09T13:46:32Z</time>
      </trkpt>
      <trkpt lat="47.6253" lon="-2.93709">
        <ele>4</ele>
        <time>2023-12-09T13:47:44Z</time>
      </trkpt>
      <trkpt lat="47.62534" lon="-2.93778">
        <ele>3</ele>
        <time>2023-12-09T13:48:46Z</time>
      </trkpt>
      <trkpt lat="47.6255" lon="-2.93879">
        <ele>2</ele>
        <time>2023-12-09T13:50:20Z</time>
      </trkpt>
      <trkpt lat="47.62556" lon="-2.93956">
        <ele>2</ele>
        <time>2023-12-09T13:51:29Z</time>
      </trkpt>
      <trkpt lat="47.6253" lon="-2.94036">
        <ele>3</ele>
        <time>2023-12-09T13:52:49Z</time>
      </trkpt>
      <trkpt lat="47.62531" lon="-2.94151">
        <ele>4</ele>
        <time>2023-12-09T13:54:33Z</time>
      </trkpt>
      <trkpt lat="47.62581" lon="-2.94231">
        <ele>2</ele>
        <time>2023-12-09T13:56:11Z</time>
      </trkpt>
      <trkpt lat="47.62568" lon="-2.94308">
        <ele>2</ele>
        <time>2023-12-09T13:57:22Z</time>
      </trkpt>
      <trkpt lat="47.62485" lon="-2.94417">
        <ele>2</ele>
        <time>2023-12-09T13:59:50Z</time>
      </trkpt>
      <trkpt lat="47.62416" lon="-2.94485">
        <ele>1</ele>
        <time>2023-12-09T14:01:41Z</time>
      </trkpt>
      <trkpt lat="47.62336" lon="-2.94633">
        <ele>3</ele>
        <time>2023-12-09T14:04:31Z</time>
      </trkpt>
      <trkpt lat="47.62116" lon="-2.94801">
        <ele>8</ele>
        <time>2023-12-09T14:10:01Z</time>
      </trkpt>
      <trkpt lat="47.62091" lon="-2.94897">
        <ele>4</ele>
        <time>2023-12-09T14:11:34Z</time>
      </trkpt>
      <trkpt lat="47.62009" lon="-2.94891">
        <ele>6</ele>
        <time>2023-12-09T14:13:24Z</time>
      </trkpt>
      <trkpt lat="47.6194" lon="-2.94832">
        <ele>15</ele>
        <time>2023-12-09T14:15:10Z</time>
      </trkpt>
      <trkpt lat="47.61859" lon="-2.94842">
        <ele>14</ele>
        <time>2023-12-09T14:16:58Z</time>
      </trkpt>
      <trkpt lat="47.61787" lon="-2.94842">
        <ele>9</ele>
        <time>2023-12-09T14:18:34Z</time>
      </trkpt>
      <trkpt lat="47.61713" lon="-2.94801">
        <ele>6</ele>
        <time>2023-12-09T14:20:20Z</time>
      </trkpt>
      <trkpt lat="47.61645" lon="-2.94758">
        <ele>7</ele>
        <time>2023-12-09T14:21:58Z</time>
      </trkpt>
      <trkpt lat="47.61585" lon="-2.94763">
        <ele>10</ele>
        <time>2023-12-09T14:23:19Z</time>
      </trkpt>
      <trkpt lat="47.61523" lon="-2.94774">
        <ele>8</ele>
        <time>2023-12-09T14:24:42Z</time>
      </trkpt>
      <trkpt lat="47.61494" lon="-2.94815">
        <ele>4</ele>
        <time>2023-12-09T14:25:35Z</time>
      </trkpt>
      <trkpt lat="47.61434" lon="-2.94835">
        <ele>4</ele>
        <time>2023-12-09T14:26:57Z</time>
      </trkpt>
      <trkpt lat="47.61386" lon="-2.94779">
        <ele>6</ele>
        <time>2023-12-09T14:28:19Z</time>
      </trkpt>
      <trkpt lat="47.6132" lon="-2.94707">
        <ele>5</ele>
        <time>2023-12-09T14:30:08Z</time>
      </trkpt>
      <trkpt lat="47.61313" lon="-2.94649">
        <ele>6</ele>
        <time>2023-12-09T14:31:01Z</time>
      </trkpt>
      <trkpt lat="47.61134" lon="-2.94696">
        <ele>4</ele>
        <time>2023-12-09T14:35:04Z</time>
      </trkpt>
      <trkpt lat="47.61141" lon="-2.94862">
        <ele>2</ele>
        <time>2023-12-09T14:37:33Z</time>
      </trkpt>
    </trkseg>
  </trk>
</gpx>